sensor_id;sensor_type;location;lat;lon;timestamp;P1;durP1;ratioP1;P2;durP2;ratioP2
70532;SDS011;58088;51.186;17.130;2023-01-13T00:01:35;3.60;;;1.00;;
70532;SDS011;58088;51.186;17.130;2023-01-13T00:04:03;2.00;;;0.70;;
70532;SDS011;58088;51.186;17.130;2023-01-13T00:06:30;3.20;;;1.00;;
70532;SDS011;58088;51.186;17.130;2023-01-13T00:08:56;3.10;;;0.90;;
70532;SDS011;58088;51.186;17.130;2023-01-13T00:11:22;3.10;;;1.10;;
70532;SDS011;58088;51.186;17.130;2023-01-13T00:13:50;4.20;;;1.20;;
70532;SDS011;58088;51.186;17.130;2023-01-13T00:16:17;4.10;;;1.00;;
70532;SDS011;58088;51.186;17.130;2023-01-13T00:18:45;3.90;;;1.30;;
70532;SDS011;58088;51.186;17.130;2023-01-13T00:21:20;3.80;;;1.20;;
70532;SDS011;58088;51.186;17.130;2023-01-13T00:23:50;3.50;;;1.30;;
70532;SDS011;58088;51.186;17.130;2023-01-13T00:26:23;3.80;;;1.30;;
70532;SDS011;58088;51.186;17.130;2023-01-13T00:29:00;3.60;;;1.30;;
70532;SDS011;58088;51.186;17.130;2023-01-13T00:31:28;4.30;;;1.30;;
70532;SDS011;58088;51.186;17.130;2023-01-13T00:33:55;4.50;;;1.60;;
70532;SDS011;58088;51.186;17.130;2023-01-13T00:36:22;3.90;;;1.50;;
70532;SDS011;58088;51.186;17.130;2023-01-13T00:38:54;5.40;;;1.60;;
70532;SDS011;58088;51.186;17.130;2023-01-13T00:41:22;3.70;;;1.30;;
70532;SDS011;58088;51.186;17.130;2023-01-13T00:43:50;4.50;;;1.20;;
70532;SDS011;58088;51.186;17.130;2023-01-13T00:46:19;3.10;;;1.00;;
70532;SDS011;58088;51.186;17.130;2023-01-13T00:48:47;3.80;;;1.00;;
70532;SDS011;58088;51.186;17.130;2023-01-13T00:51:19;2.60;;;0.80;;
70532;SDS011;58088;51.186;17.130;2023-01-13T00:53:48;3.20;;;1.20;;
70532;SDS011;58088;51.186;17.130;2023-01-13T00:56:18;3.40;;;1.10;;
70532;SDS011;58088;51.186;17.130;2023-01-13T00:58:47;4.20;;;1.40;;
70532;SDS011;58088;51.186;17.130;2023-01-13T01:01:19;4.30;;;1.50;;
70532;SDS011;58088;51.186;17.130;2023-01-13T01:03:49;4.00;;;1.30;;
70532;SDS011;58088;51.186;17.130;2023-01-13T01:06:23;4.10;;;1.30;;
70532;SDS011;58088;51.186;17.130;2023-01-13T01:08:51;2.90;;;1.00;;
70532;SDS011;58088;51.186;17.130;2023-01-13T01:11:24;5.00;;;1.40;;
70532;SDS011;58088;51.186;17.130;2023-01-13T01:13:54;4.90;;;1.20;;
70532;SDS011;58088;51.186;17.130;2023-01-13T01:16:24;3.90;;;1.40;;
70532;SDS011;58088;51.186;17.130;2023-01-13T01:18:52;3.90;;;1.30;;
70532;SDS011;58088;51.186;17.130;2023-01-13T01:21:21;4.40;;;1.50;;
70532;SDS011;58088;51.186;17.130;2023-01-13T01:23:48;3.90;;;1.40;;
70532;SDS011;58088;51.186;17.130;2023-01-13T01:26:17;3.50;;;1.10;;
70532;SDS011;58088;51.186;17.130;2023-01-13T01:28:46;2.40;;;1.10;;
70532;SDS011;58088;51.186;17.130;2023-01-13T01:31:18;2.70;;;1.10;;
70532;SDS011;58088;51.186;17.130;2023-01-13T01:33:47;3.60;;;1.50;;
70532;SDS011;58088;51.186;17.130;2023-01-13T01:36:17;3.10;;;1.10;;
70532;SDS011;58088;51.186;17.130;2023-01-13T01:38:45;2.80;;;0.90;;
70532;SDS011;58088;51.186;17.130;2023-01-13T01:41:20;3.40;;;1.40;;
70532;SDS011;58088;51.186;17.130;2023-01-13T01:44:00;3.60;;;1.40;;
70532;SDS011;58088;51.186;17.130;2023-01-13T01:46:47;3.80;;;1.40;;
70532;SDS011;58088;51.186;17.130;2023-01-13T01:49:32;3.60;;;0.90;;
70532;SDS011;58088;51.186;17.130;2023-01-13T01:52:04;4.70;;;1.50;;
70532;SDS011;58088;51.186;17.130;2023-01-13T01:55:15;3.90;;;1.40;;
70532;SDS011;58088;51.186;17.130;2023-01-13T01:57:57;3.10;;;1.30;;
70532;SDS011;58088;51.186;17.130;2023-01-13T02:00:30;3.20;;;1.30;;
70532;SDS011;58088;51.186;17.130;2023-01-13T02:03:16;2.80;;;1.20;;
70532;SDS011;58088;51.186;17.130;2023-01-13T02:05:43;3.00;;;1.40;;
70532;SDS011;58088;51.186;17.130;2023-01-13T02:08:11;4.50;;;1.70;;
70532;SDS011;58088;51.186;17.130;2023-01-13T02:10:39;3.60;;;1.40;;
70532;SDS011;58088;51.186;17.130;2023-01-13T02:13:11;3.80;;;1.50;;
70532;SDS011;58088;51.186;17.130;2023-01-13T02:15:56;5.00;;;1.60;;
70532;SDS011;58088;51.186;17.130;2023-01-13T02:18:55;4.40;;;1.40;;
70532;SDS011;58088;51.186;17.130;2023-01-13T02:21:51;4.60;;;1.60;;
70532;SDS011;58088;51.186;17.130;2023-01-13T02:30:44;4.10;;;1.40;;
70532;SDS011;58088;51.186;17.130;2023-01-13T02:33:40;3.10;;;1.10;;
70532;SDS011;58088;51.186;17.130;2023-01-13T02:36:37;4.10;;;1.20;;
70532;SDS011;58088;51.186;17.130;2023-01-13T02:39:25;3.60;;;1.30;;
70532;SDS011;58088;51.186;17.130;2023-01-13T02:45:22;3.30;;;1.00;;
70532;SDS011;58088;51.186;17.130;2023-01-13T02:47:55;4.50;;;1.30;;
70532;SDS011;58088;51.186;17.130;2023-01-13T02:50:48;3.20;;;1.00;;
70532;SDS011;58088;51.186;17.130;2023-01-13T02:53:59;3.50;;;1.30;;
70532;SDS011;58088;51.186;17.130;2023-01-13T02:56:32;3.20;;;1.10;;
70532;SDS011;58088;51.186;17.130;2023-01-13T02:59:02;3.10;;;0.90;;
70532;SDS011;58088;51.186;17.130;2023-01-13T03:01:29;3.80;;;1.20;;
70532;SDS011;58088;51.186;17.130;2023-01-13T03:03:55;3.00;;;1.10;;
70532;SDS011;58088;51.186;17.130;2023-01-13T03:07:00;3.30;;;1.20;;
70532;SDS011;58088;51.186;17.130;2023-01-13T03:09:40;3.50;;;1.20;;
70532;SDS011;58088;51.186;17.130;2023-01-13T03:12:29;4.80;;;1.40;;
70532;SDS011;58088;51.186;17.130;2023-01-13T03:15:16;4.50;;;1.30;;
70532;SDS011;58088;51.186;17.130;2023-01-13T03:18:31;3.60;;;1.30;;
70532;SDS011;58088;51.186;17.130;2023-01-13T03:21:24;3.80;;;1.30;;
70532;SDS011;58088;51.186;17.130;2023-01-13T03:24:19;3.10;;;1.10;;
70532;SDS011;58088;51.186;17.130;2023-01-13T03:27:05;2.80;;;1.10;;
70532;SDS011;58088;51.186;17.130;2023-01-13T03:29:40;1.50;;;0.70;;
70532;SDS011;58088;51.186;17.130;2023-01-13T03:35:24;4.30;;;1.20;;
70532;SDS011;58088;51.186;17.130;2023-01-13T03:38:02;3.50;;;1.30;;
70532;SDS011;58088;51.186;17.130;2023-01-13T03:40:43;2.60;;;0.90;;
70532;SDS011;58088;51.186;17.130;2023-01-13T03:43:20;1.60;;;0.80;;
70532;SDS011;58088;51.186;17.130;2023-01-13T03:46:18;3.80;;;0.90;;
70532;SDS011;58088;51.186;17.130;2023-01-13T03:48:53;2.70;;;1.10;;
70532;SDS011;58088;51.186;17.130;2023-01-13T03:51:24;2.30;;;0.60;;
70532;SDS011;58088;51.186;17.130;2023-01-13T03:53:57;3.10;;;0.80;;
70532;SDS011;58088;51.186;17.130;2023-01-13T03:59:27;2.60;;;0.90;;
70532;SDS011;58088;51.186;17.130;2023-01-13T04:02:08;2.50;;;1.00;;
70532;SDS011;58088;51.186;17.130;2023-01-13T04:10:10;2.30;;;0.80;;
70532;SDS011;58088;51.186;17.130;2023-01-13T04:12:44;4.00;;;1.00;;
70532;SDS011;58088;51.186;17.130;2023-01-13T04:15:38;2.10;;;0.90;;
70532;SDS011;58088;51.186;17.130;2023-01-13T04:18:15;2.90;;;0.80;;
70532;SDS011;58088;51.186;17.130;2023-01-13T04:20:54;2.10;;;0.70;;
70532;SDS011;58088;51.186;17.130;2023-01-13T04:23:23;3.60;;;0.90;;
70532;SDS011;58088;51.186;17.130;2023-01-13T04:25:50;2.70;;;0.90;;
70532;SDS011;58088;51.186;17.130;2023-01-13T04:28:17;3.00;;;0.90;;
70532;SDS011;58088;51.186;17.130;2023-01-13T04:30:45;1.50;;;0.60;;
70532;SDS011;58088;51.186;17.130;2023-01-13T04:33:12;2.30;;;0.80;;
70532;SDS011;58088;51.186;17.130;2023-01-13T04:35:40;2.90;;;0.70;;
70532;SDS011;58088;51.186;17.130;2023-01-13T04:38:16;3.00;;;0.70;;
70532;SDS011;58088;51.186;17.130;2023-01-13T04:40:43;3.90;;;1.00;;
70532;SDS011;58088;51.186;17.130;2023-01-13T04:43:10;2.90;;;1.00;;
70532;SDS011;58088;51.186;17.130;2023-01-13T04:45:37;4.20;;;1.10;;
70532;SDS011;58088;51.186;17.130;2023-01-13T04:48:04;3.30;;;0.90;;
70532;SDS011;58088;51.186;17.130;2023-01-13T04:50:30;2.90;;;0.90;;
70532;SDS011;58088;51.186;17.130;2023-01-13T04:52:56;2.30;;;0.80;;
70532;SDS011;58088;51.186;17.130;2023-01-13T04:55:23;4.40;;;0.70;;
70532;SDS011;58088;51.186;17.130;2023-01-13T04:57:50;3.30;;;0.80;;
70532;SDS011;58088;51.186;17.130;2023-01-13T05:00:19;2.80;;;0.90;;
70532;SDS011;58088;51.186;17.130;2023-01-13T05:02:50;3.80;;;1.10;;
70532;SDS011;58088;51.186;17.130;2023-01-13T05:05:17;4.00;;;1.00;;
70532;SDS011;58088;51.186;17.130;2023-01-13T05:07:44;2.70;;;0.90;;
70532;SDS011;58088;51.186;17.130;2023-01-13T05:10:11;4.10;;;1.20;;
70532;SDS011;58088;51.186;17.130;2023-01-13T05:12:38;5.40;;;1.30;;
70532;SDS011;58088;51.186;17.130;2023-01-13T05:15:23;2.70;;;1.10;;
70532;SDS011;58088;51.186;17.130;2023-01-13T05:18:08;5.50;;;1.30;;
70532;SDS011;58088;51.186;17.130;2023-01-13T05:20:34;4.50;;;1.20;;
70532;SDS011;58088;51.186;17.130;2023-01-13T05:23:01;2.70;;;0.90;;
70532;SDS011;58088;51.186;17.130;2023-01-13T05:25:47;4.50;;;1.20;;
70532;SDS011;58088;51.186;17.130;2023-01-13T05:28:14;3.90;;;1.20;;
70532;SDS011;58088;51.186;17.130;2023-01-13T05:30:43;2.40;;;0.90;;
70532;SDS011;58088;51.186;17.130;2023-01-13T05:33:13;3.30;;;1.00;;
70532;SDS011;58088;51.186;17.130;2023-01-13T05:35:42;3.80;;;1.20;;
70532;SDS011;58088;51.186;17.130;2023-01-13T05:38:11;3.80;;;0.80;;
70532;SDS011;58088;51.186;17.130;2023-01-13T05:40:39;2.60;;;1.00;;
70532;SDS011;58088;51.186;17.130;2023-01-13T05:43:26;2.80;;;0.80;;
70532;SDS011;58088;51.186;17.130;2023-01-13T05:45:58;3.30;;;0.70;;
70532;SDS011;58088;51.186;17.130;2023-01-13T05:48:34;3.10;;;0.80;;
70532;SDS011;58088;51.186;17.130;2023-01-13T05:51:08;3.30;;;0.90;;
70532;SDS011;58088;51.186;17.130;2023-01-13T05:53:36;2.80;;;0.90;;
70532;SDS011;58088;51.186;17.130;2023-01-13T05:56:06;4.00;;;1.00;;
70532;SDS011;58088;51.186;17.130;2023-01-13T05:58:33;3.20;;;0.90;;
70532;SDS011;58088;51.186;17.130;2023-01-13T06:01:02;4.50;;;0.90;;
70532;SDS011;58088;51.186;17.130;2023-01-13T06:03:30;3.80;;;1.20;;
70532;SDS011;58088;51.186;17.130;2023-01-13T06:05:57;2.80;;;0.80;;
70532;SDS011;58088;51.186;17.130;2023-01-13T06:08:26;2.80;;;0.70;;
70532;SDS011;58088;51.186;17.130;2023-01-13T06:10:53;4.20;;;0.90;;
70532;SDS011;58088;51.186;17.130;2023-01-13T06:13:19;2.60;;;0.90;;
70532;SDS011;58088;51.186;17.130;2023-01-13T06:15:46;3.60;;;0.90;;
70532;SDS011;58088;51.186;17.130;2023-01-13T06:18:12;3.00;;;0.80;;
70532;SDS011;58088;51.186;17.130;2023-01-13T06:20:38;3.50;;;0.90;;
70532;SDS011;58088;51.186;17.130;2023-01-13T06:23:07;2.80;;;0.70;;
70532;SDS011;58088;51.186;17.130;2023-01-13T06:28:05;3.80;;;1.10;;
70532;SDS011;58088;51.186;17.130;2023-01-13T06:30:42;4.60;;;1.10;;
70532;SDS011;58088;51.186;17.130;2023-01-13T06:33:15;2.90;;;0.90;;
70532;SDS011;58088;51.186;17.130;2023-01-13T06:35:52;4.70;;;0.90;;
70532;SDS011;58088;51.186;17.130;2023-01-13T06:38:23;3.10;;;0.80;;
70532;SDS011;58088;51.186;17.130;2023-01-13T06:40:53;2.10;;;0.80;;
70532;SDS011;58088;51.186;17.130;2023-01-13T06:43:19;2.00;;;0.70;;
70532;SDS011;58088;51.186;17.130;2023-01-13T06:45:54;2.40;;;0.70;;
70532;SDS011;58088;51.186;17.130;2023-01-13T06:48:27;4.90;;;0.80;;
70532;SDS011;58088;51.186;17.130;2023-01-13T06:51:03;2.60;;;0.60;;
70532;SDS011;58088;51.186;17.130;2023-01-13T06:53:30;3.70;;;0.70;;
70532;SDS011;58088;51.186;17.130;2023-01-13T06:55:57;2.10;;;0.70;;
70532;SDS011;58088;51.186;17.130;2023-01-13T06:58:24;2.80;;;1.00;;
70532;SDS011;58088;51.186;17.130;2023-01-13T07:00:50;3.80;;;1.00;;
70532;SDS011;58088;51.186;17.130;2023-01-13T07:03:17;2.30;;;0.80;;
70532;SDS011;58088;51.186;17.130;2023-01-13T07:05:53;3.10;;;0.70;;
70532;SDS011;58088;51.186;17.130;2023-01-13T07:08:22;2.90;;;0.70;;
70532;SDS011;58088;51.186;17.130;2023-01-13T07:10:49;2.50;;;0.70;;
70532;SDS011;58088;51.186;17.130;2023-01-13T07:13:16;2.90;;;0.80;;
70532;SDS011;58088;51.186;17.130;2023-01-13T07:16:04;3.70;;;0.70;;
70532;SDS011;58088;51.186;17.130;2023-01-13T07:18:32;3.20;;;0.70;;
70532;SDS011;58088;51.186;17.130;2023-01-13T07:21:02;4.50;;;0.80;;
70532;SDS011;58088;51.186;17.130;2023-01-13T07:23:35;1.60;;;0.60;;
70532;SDS011;58088;51.186;17.130;2023-01-13T07:26:04;2.20;;;0.60;;
70532;SDS011;58088;51.186;17.130;2023-01-13T07:28:32;2.90;;;0.80;;
70532;SDS011;58088;51.186;17.130;2023-01-13T07:30:59;2.00;;;0.60;;
70532;SDS011;58088;51.186;17.130;2023-01-13T07:33:26;1.90;;;0.90;;
70532;SDS011;58088;51.186;17.130;2023-01-13T07:35:57;2.80;;;0.80;;
70532;SDS011;58088;51.186;17.130;2023-01-13T07:38:29;2.50;;;0.90;;
70532;SDS011;58088;51.186;17.130;2023-01-13T07:40:56;2.40;;;0.90;;
70532;SDS011;58088;51.186;17.130;2023-01-13T07:43:23;3.90;;;0.90;;
70532;SDS011;58088;51.186;17.130;2023-01-13T07:46:00;3.10;;;0.70;;
70532;SDS011;58088;51.186;17.130;2023-01-13T07:48:31;2.90;;;0.60;;
70532;SDS011;58088;51.186;17.130;2023-01-13T07:51:05;4.30;;;0.70;;
70532;SDS011;58088;51.186;17.130;2023-01-13T07:53:34;3.20;;;0.90;;
70532;SDS011;58088;51.186;17.130;2023-01-13T07:56:03;3.10;;;0.90;;
70532;SDS011;58088;51.186;17.130;2023-01-13T07:58:33;5.50;;;1.20;;
70532;SDS011;58088;51.186;17.130;2023-01-13T08:01:06;4.20;;;1.00;;
70532;SDS011;58088;51.186;17.130;2023-01-13T08:03:34;3.70;;;1.10;;
70532;SDS011;58088;51.186;17.130;2023-01-13T08:06:00;2.80;;;1.00;;
70532;SDS011;58088;51.186;17.130;2023-01-13T08:08:27;3.20;;;1.00;;
70532;SDS011;58088;51.186;17.130;2023-01-13T08:10:53;3.10;;;1.00;;
70532;SDS011;58088;51.186;17.130;2023-01-13T08:13:23;3.90;;;0.90;;
70532;SDS011;58088;51.186;17.130;2023-01-13T08:15:52;3.00;;;0.80;;
70532;SDS011;58088;51.186;17.130;2023-01-13T08:18:23;2.70;;;1.00;;
70532;SDS011;58088;51.186;17.130;2023-01-13T08:20:50;3.80;;;0.90;;
70532;SDS011;58088;51.186;17.130;2023-01-13T08:23:21;3.60;;;0.90;;
70532;SDS011;58088;51.186;17.130;2023-01-13T08:25:48;3.90;;;1.30;;
70532;SDS011;58088;51.186;17.130;2023-01-13T08:28:15;2.40;;;0.80;;
70532;SDS011;58088;51.186;17.130;2023-01-13T08:30:42;3.10;;;0.90;;
70532;SDS011;58088;51.186;17.130;2023-01-13T08:33:11;3.70;;;1.00;;
70532;SDS011;58088;51.186;17.130;2023-01-13T08:35:39;2.30;;;0.90;;
70532;SDS011;58088;51.186;17.130;2023-01-13T08:38:06;2.50;;;0.60;;
70532;SDS011;58088;51.186;17.130;2023-01-13T08:40:33;3.30;;;1.00;;
70532;SDS011;58088;51.186;17.130;2023-01-13T08:43:01;3.40;;;1.10;;
70532;SDS011;58088;51.186;17.130;2023-01-13T08:45:27;4.00;;;1.00;;
70532;SDS011;58088;51.186;17.130;2023-01-13T08:47:54;1.90;;;0.70;;
70532;SDS011;58088;51.186;17.130;2023-01-13T08:50:20;2.00;;;0.70;;
70532;SDS011;58088;51.186;17.130;2023-01-13T08:52:46;2.80;;;1.00;;
70532;SDS011;58088;51.186;17.130;2023-01-13T08:55:14;2.90;;;0.80;;
70532;SDS011;58088;51.186;17.130;2023-01-13T08:57:41;3.90;;;1.30;;
70532;SDS011;58088;51.186;17.130;2023-01-13T09:00:08;3.10;;;1.30;;
70532;SDS011;58088;51.186;17.130;2023-01-13T09:02:35;2.70;;;0.80;;
70532;SDS011;58088;51.186;17.130;2023-01-13T09:05:04;4.50;;;1.10;;
70532;SDS011;58088;51.186;17.130;2023-01-13T09:07:33;3.90;;;0.80;;
70532;SDS011;58088;51.186;17.130;2023-01-13T09:10:03;3.80;;;1.20;;
70532;SDS011;58088;51.186;17.130;2023-01-13T09:12:31;3.10;;;1.10;;
70532;SDS011;58088;51.186;17.130;2023-01-13T09:15:16;4.10;;;1.20;;
70532;SDS011;58088;51.186;17.130;2023-01-13T09:17:44;4.70;;;1.30;;
70532;SDS011;58088;51.186;17.130;2023-01-13T09:20:11;3.30;;;1.00;;
70532;SDS011;58088;51.186;17.130;2023-01-13T09:22:38;4.50;;;1.20;;
70532;SDS011;58088;51.186;17.130;2023-01-13T09:25:06;3.40;;;1.10;;
70532;SDS011;58088;51.186;17.130;2023-01-13T09:27:33;2.80;;;0.80;;
70532;SDS011;58088;51.186;17.130;2023-01-13T09:30:00;4.50;;;1.10;;
70532;SDS011;58088;51.186;17.130;2023-01-13T09:32:26;2.80;;;0.80;;
70532;SDS011;58088;51.186;17.130;2023-01-13T09:34:52;3.80;;;1.20;;
70532;SDS011;58088;51.186;17.130;2023-01-13T09:37:30;3.70;;;1.20;;
70532;SDS011;58088;51.186;17.130;2023-01-13T09:40:05;5.50;;;1.00;;
70532;SDS011;58088;51.186;17.130;2023-01-13T09:45:58;3.10;;;0.70;;
70532;SDS011;58088;51.186;17.130;2023-01-13T09:48:38;3.60;;;1.10;;
70532;SDS011;58088;51.186;17.130;2023-01-13T09:51:23;2.10;;;0.80;;
70532;SDS011;58088;51.186;17.130;2023-01-13T09:54:00;2.90;;;1.10;;
70532;SDS011;58088;51.186;17.130;2023-01-13T09:56:37;4.30;;;1.30;;
70532;SDS011;58088;51.186;17.130;2023-01-13T09:59:03;3.40;;;1.10;;
70532;SDS011;58088;51.186;17.130;2023-01-13T10:02:01;3.30;;;0.90;;
70532;SDS011;58088;51.186;17.130;2023-01-13T10:04:29;3.00;;;1.10;;
70532;SDS011;58088;51.186;17.130;2023-01-13T10:06:58;3.90;;;1.60;;
70532;SDS011;58088;51.186;17.130;2023-01-13T10:09:48;4.10;;;1.30;;
70532;SDS011;58088;51.186;17.130;2023-01-13T10:12:22;4.00;;;1.20;;
70532;SDS011;58088;51.186;17.130;2023-01-13T10:15:27;3.70;;;0.90;;
70532;SDS011;58088;51.186;17.130;2023-01-13T10:18:23;3.50;;;1.50;;
70532;SDS011;58088;51.186;17.130;2023-01-13T10:24:05;3.60;;;1.30;;
70532;SDS011;58088;51.186;17.130;2023-01-13T10:27:15;3.50;;;1.50;;
70532;SDS011;58088;51.186;17.130;2023-01-13T10:29:50;2.70;;;0.90;;
70532;SDS011;58088;51.186;17.130;2023-01-13T10:32:17;3.80;;;1.30;;
70532;SDS011;58088;51.186;17.130;2023-01-13T10:34:45;3.70;;;1.10;;
70532;SDS011;58088;51.186;17.130;2023-01-13T10:37:24;3.50;;;1.40;;
70532;SDS011;58088;51.186;17.130;2023-01-13T10:39:56;2.60;;;1.10;;
70532;SDS011;58088;51.186;17.130;2023-01-13T10:42:25;3.60;;;1.00;;
70532;SDS011;58088;51.186;17.130;2023-01-13T10:44:56;3.40;;;1.30;;
70532;SDS011;58088;51.186;17.130;2023-01-13T10:47:27;5.00;;;1.30;;
70532;SDS011;58088;51.186;17.130;2023-01-13T10:52:41;3.30;;;1.10;;
70532;SDS011;58088;51.186;17.130;2023-01-13T10:55:39;3.30;;;1.30;;
70532;SDS011;58088;51.186;17.130;2023-01-13T10:58:18;3.90;;;1.40;;
70532;SDS011;58088;51.186;17.130;2023-01-13T11:00:46;5.10;;;1.30;;
70532;SDS011;58088;51.186;17.130;2023-01-13T11:03:19;3.70;;;1.30;;
70532;SDS011;58088;51.186;17.130;2023-01-13T11:05:56;3.90;;;1.30;;
70532;SDS011;58088;51.186;17.130;2023-01-13T11:08:27;3.80;;;1.60;;
70532;SDS011;58088;51.186;17.130;2023-01-13T11:10:56;4.20;;;1.40;;
70532;SDS011;58088;51.186;17.130;2023-01-13T11:16:15;4.20;;;1.30;;
70532;SDS011;58088;51.186;17.130;2023-01-13T11:18:49;4.30;;;1.50;;
70532;SDS011;58088;51.186;17.130;2023-01-13T11:21:31;3.70;;;1.10;;
70532;SDS011;58088;51.186;17.130;2023-01-13T11:30:04;5.00;;;1.50;;
70532;SDS011;58088;51.186;17.130;2023-01-13T11:38:55;3.00;;;1.30;;
70532;SDS011;58088;51.186;17.130;2023-01-13T11:41:43;4.70;;;1.30;;
70532;SDS011;58088;51.186;17.130;2023-01-13T11:44:43;4.00;;;1.30;;
70532;SDS011;58088;51.186;17.130;2023-01-13T11:47:22;6.10;;;1.50;;
70532;SDS011;58088;51.186;17.130;2023-01-13T11:49:51;5.30;;;1.40;;
70532;SDS011;58088;51.186;17.130;2023-01-13T12:07:21;4.40;;;1.30;;
70532;SDS011;58088;51.186;17.130;2023-01-13T12:16:01;2.90;;;0.90;;
70532;SDS011;58088;51.186;17.130;2023-01-13T12:21:20;3.60;;;1.10;;
70532;SDS011;58088;51.186;17.130;2023-01-13T12:26:29;5.00;;;1.50;;
70532;SDS011;58088;51.186;17.130;2023-01-13T12:29:12;4.00;;;1.20;;
70532;SDS011;58088;51.186;17.130;2023-01-13T12:31:44;4.80;;;1.90;;
70532;SDS011;58088;51.186;17.130;2023-01-13T12:37:20;3.30;;;1.10;;
70532;SDS011;58088;51.186;17.130;2023-01-13T12:42:45;3.10;;;0.90;;
70532;SDS011;58088;51.186;17.130;2023-01-13T12:45:37;3.20;;;1.10;;
70532;SDS011;58088;51.186;17.130;2023-01-13T12:48:04;3.70;;;1.30;;
70532;SDS011;58088;51.186;17.130;2023-01-13T12:53:32;3.70;;;1.40;;
70532;SDS011;58088;51.186;17.130;2023-01-13T13:01:44;5.30;;;1.60;;
70532;SDS011;58088;51.186;17.130;2023-01-13T13:04:13;4.60;;;1.60;;
70532;SDS011;58088;51.186;17.130;2023-01-13T13:06:51;3.30;;;0.80;;
70532;SDS011;58088;51.186;17.130;2023-01-13T13:09:39;4.60;;;1.30;;
70532;SDS011;58088;51.186;17.130;2023-01-13T13:15:25;4.90;;;1.70;;
70532;SDS011;58088;51.186;17.130;2023-01-13T13:23:36;6.80;;;2.00;;
70532;SDS011;58088;51.186;17.130;2023-01-13T13:34:56;5.90;;;1.90;;
70532;SDS011;58088;51.186;17.130;2023-01-13T13:40:43;4.30;;;1.40;;
70532;SDS011;58088;51.186;17.130;2023-01-13T13:43:36;5.70;;;1.90;;
70532;SDS011;58088;51.186;17.130;2023-01-13T13:46:44;6.70;;;1.80;;
70532;SDS011;58088;51.186;17.130;2023-01-13T13:49:14;5.00;;;1.60;;
70532;SDS011;58088;51.186;17.130;2023-01-13T13:51:51;5.80;;;1.60;;
70532;SDS011;58088;51.186;17.130;2023-01-13T13:54:25;3.80;;;1.60;;
70532;SDS011;58088;51.186;17.130;2023-01-13T13:56:52;4.60;;;1.50;;
70532;SDS011;58088;51.186;17.130;2023-01-13T13:59:24;4.70;;;1.30;;
70532;SDS011;58088;51.186;17.130;2023-01-13T14:01:57;3.30;;;1.10;;
70532;SDS011;58088;51.186;17.130;2023-01-13T14:04:29;5.30;;;1.70;;
70532;SDS011;58088;51.186;17.130;2023-01-13T14:07:16;4.10;;;1.30;;
70532;SDS011;58088;51.186;17.130;2023-01-13T14:09:50;3.20;;;1.30;;
70532;SDS011;58088;51.186;17.130;2023-01-13T14:12:24;3.70;;;1.10;;
70532;SDS011;58088;51.186;17.130;2023-01-13T14:14:52;4.10;;;1.80;;
70532;SDS011;58088;51.186;17.130;2023-01-13T14:17:25;4.60;;;1.40;;
70532;SDS011;58088;51.186;17.130;2023-01-13T14:20:02;5.50;;;1.70;;
70532;SDS011;58088;51.186;17.130;2023-01-13T14:22:32;3.90;;;1.50;;
70532;SDS011;58088;51.186;17.130;2023-01-13T14:24:59;3.50;;;1.30;;
70532;SDS011;58088;51.186;17.130;2023-01-13T14:27:28;2.80;;;1.10;;
70532;SDS011;58088;51.186;17.130;2023-01-13T14:29:57;3.40;;;1.40;;
70532;SDS011;58088;51.186;17.130;2023-01-13T14:32:31;3.10;;;1.00;;
70532;SDS011;58088;51.186;17.130;2023-01-13T14:35:01;2.30;;;1.00;;
70532;SDS011;58088;51.186;17.130;2023-01-13T14:37:37;2.00;;;0.80;;
70532;SDS011;58088;51.186;17.130;2023-01-13T14:40:05;2.10;;;0.90;;
70532;SDS011;58088;51.186;17.130;2023-01-13T14:42:59;2.50;;;0.80;;
70532;SDS011;58088;51.186;17.130;2023-01-13T14:45:27;2.80;;;0.90;;
70532;SDS011;58088;51.186;17.130;2023-01-13T14:47:57;3.30;;;1.00;;
70532;SDS011;58088;51.186;17.130;2023-01-13T14:50:26;2.40;;;0.80;;
70532;SDS011;58088;51.186;17.130;2023-01-13T14:52:57;2.50;;;0.70;;
70532;SDS011;58088;51.186;17.130;2023-01-13T14:55:29;2.70;;;0.80;;
70532;SDS011;58088;51.186;17.130;2023-01-13T14:58:24;2.40;;;0.80;;
70532;SDS011;58088;51.186;17.130;2023-01-13T15:01:32;1.70;;;0.70;;
70532;SDS011;58088;51.186;17.130;2023-01-13T15:04:25;1.90;;;0.60;;
70532;SDS011;58088;51.186;17.130;2023-01-13T15:06:57;1.80;;;0.70;;
70532;SDS011;58088;51.186;17.130;2023-01-13T15:09:28;2.60;;;0.90;;
70532;SDS011;58088;51.186;17.130;2023-01-13T15:12:13;3.00;;;1.20;;
70532;SDS011;58088;51.186;17.130;2023-01-13T15:14:42;3.70;;;1.30;;
70532;SDS011;58088;51.186;17.130;2023-01-13T15:17:15;3.60;;;1.20;;
70532;SDS011;58088;51.186;17.130;2023-01-13T15:19:45;5.00;;;1.50;;
70532;SDS011;58088;51.186;17.130;2023-01-13T15:22:11;4.80;;;1.60;;
70532;SDS011;58088;51.186;17.130;2023-01-13T15:24:37;5.50;;;2.40;;
70532;SDS011;58088;51.186;17.130;2023-01-13T15:27:15;5.60;;;2.40;;
70532;SDS011;58088;51.186;17.130;2023-01-13T15:29:44;5.20;;;2.10;;
70532;SDS011;58088;51.186;17.130;2023-01-13T15:32:17;2.60;;;1.00;;
70532;SDS011;58088;51.186;17.130;2023-01-13T15:34:45;7.20;;;2.50;;
70532;SDS011;58088;51.186;17.130;2023-01-13T15:37:14;7.60;;;3.10;;
70532;SDS011;58088;51.186;17.130;2023-01-13T15:39:42;6.50;;;2.80;;
70532;SDS011;58088;51.186;17.130;2023-01-13T15:42:12;8.00;;;3.20;;
70532;SDS011;58088;51.186;17.130;2023-01-13T15:44:58;5.30;;;2.30;;
70532;SDS011;58088;51.186;17.130;2023-01-13T15:47:43;4.40;;;1.70;;
70532;SDS011;58088;51.186;17.130;2023-01-13T15:50:14;7.20;;;2.70;;
70532;SDS011;58088;51.186;17.130;2023-01-13T15:52:43;5.80;;;2.50;;
70532;SDS011;58088;51.186;17.130;2023-01-13T15:55:12;5.80;;;2.70;;
70532;SDS011;58088;51.186;17.130;2023-01-13T15:57:42;4.70;;;2.70;;
70532;SDS011;58088;51.186;17.130;2023-01-13T16:00:16;6.30;;;2.70;;
70532;SDS011;58088;51.186;17.130;2023-01-13T16:02:45;6.40;;;2.60;;
70532;SDS011;58088;51.186;17.130;2023-01-13T16:05:11;6.40;;;1.70;;
70532;SDS011;58088;51.186;17.130;2023-01-13T16:07:38;5.50;;;2.10;;
70532;SDS011;58088;51.186;17.130;2023-01-13T16:10:07;3.80;;;1.80;;
70532;SDS011;58088;51.186;17.130;2023-01-13T16:12:41;4.80;;;1.70;;
70532;SDS011;58088;51.186;17.130;2023-01-13T16:15:11;4.10;;;1.60;;
70532;SDS011;58088;51.186;17.130;2023-01-13T16:17:40;4.10;;;1.90;;
70532;SDS011;58088;51.186;17.130;2023-01-13T16:20:15;5.00;;;2.00;;
70532;SDS011;58088;51.186;17.130;2023-01-13T16:22:43;6.10;;;2.70;;
70532;SDS011;58088;51.186;17.130;2023-01-13T16:25:18;4.20;;;1.70;;
70532;SDS011;58088;51.186;17.130;2023-01-13T16:27:47;5.50;;;2.10;;
70532;SDS011;58088;51.186;17.130;2023-01-13T16:30:29;5.80;;;2.40;;
70532;SDS011;58088;51.186;17.130;2023-01-13T16:32:56;5.20;;;2.80;;
70532;SDS011;58088;51.186;17.130;2023-01-13T16:35:23;6.30;;;2.90;;
70532;SDS011;58088;51.186;17.130;2023-01-13T16:37:50;6.60;;;2.80;;
70532;SDS011;58088;51.186;17.130;2023-01-13T16:40:27;5.90;;;2.40;;
70532;SDS011;58088;51.186;17.130;2023-01-13T16:42:55;6.70;;;2.40;;
70532;SDS011;58088;51.186;17.130;2023-01-13T16:45:23;3.90;;;1.40;;
70532;SDS011;58088;51.186;17.130;2023-01-13T16:47:49;4.30;;;1.90;;
70532;SDS011;58088;51.186;17.130;2023-01-13T16:50:38;4.80;;;1.70;;
70532;SDS011;58088;51.186;17.130;2023-01-13T16:53:10;3.90;;;1.20;;
70532;SDS011;58088;51.186;17.130;2023-01-13T16:55:38;3.40;;;1.20;;
70532;SDS011;58088;51.186;17.130;2023-01-13T16:58:05;5.10;;;1.30;;
70532;SDS011;58088;51.186;17.130;2023-01-13T17:00:36;5.10;;;1.60;;